Time;durP1;ratioP1;P1;durP2;ratioP2;P2;SDS_P1;SDS_P2;PMS_P1;PMS_P2;Temp;Humidity;BMP_temperature;BMP_pressure;BME280_temperature;BME280_humidity;BME280_pressure;Samples;Min_cycle;Max_cycle;Signal;HPM_P1;HPM_P2
2022/04/02 07:56:50;;;;;;;;;;;;;;;1.61;71.99;95829.44;4252769;27;11181;-61
2022/04/02 07:58:58;;;;;;;;;;;;;;;1.92;71.46;95825.19;4246196;27;5593;-61
2022/04/02 08:01:04;;;;;;;;;;;;;;;2.02;70.92;95825.03;4245941;27;5619;-63
2022/04/02 08:03:08;;;;;;;;;;;;;;;1.98;68.84;95831.56;4247978;27;5752;-61
2022/04/02 08:05:14;;;;;;;;;;;;;;;2.07;69.13;95834.97;4233046;27;5670;-61
2022/04/02 08:07:15;;;;;;;;;;;;;;;1.97;70.01;95835.97;4215963;28;5803;-60
2022/04/02 08:09:18;;;;;;;;;;;;;;;1.86;69.84;95836.28;4212666;28;5630;-60
2022/04/02 08:11:20;;;;;;;;;;;;;;;2.13;69.89;95845.56;4218988;28;5679;-61
2022/04/02 08:13:22;;;;;;;;;;;;;;;1.91;68.97;95846.22;4230038;27;5810;-61
2022/04/02 08:15:24;;;;;;;;;;;;;;;2.14;68.65;95851.59;4212325;28;5878;-60
2022/04/02 08:17:27;;;;;;;;;;;;;;;2.18;68.19;95853.72;4212883;28;5787;-60
2022/04/02 08:19:29;;;;;;;;;;;;;;;2.34;68.44;95858.09;4213550;28;5737;-61
2022/04/02 08:21:31;;;;;;;;;;;;;;;2.51;67.94;95853.69;4219593;28;5717;-60
2022/04/02 08:23:33;;;;;;;;;;;;;;;2.35;65.86;95854.50;4214474;28;5663;-60
2022/04/02 08:25:38;;;;;;;;;;;;;;;2.07;67.95;95856.66;4220076;28;5871;-61
2022/04/02 08:27:46;;;;;;;;;;;;;;;2.31;67.19;95863.66;4216627;28;6404;-62
2022/04/02 08:29:56;;;;;;;;;;;;;;;2.49;66.90;95855.63;4227553;27;5676;-62
2022/04/02 08:32:16;;;;;;;;;;;;;;;2.06;67.94;95854.22;4236535;27;5074;-62
2022/04/02 08:34:30;;;;;;;;;;;;;;;2.40;68.05;95862.66;4217206;28;7704;-63
2022/04/02 08:37:02;;;;;;;;;;;;;;;2.55;66.38;95868.00;4219282;28;5706;-62
2022/04/02 08:39:13;;;;;;;;;;;;;;;2.55;66.76;95866.22;4212469;28;5638;-62
2022/04/02 08:41:27;;;;;;;;;;;;;;;2.60;66.51;95870.94;4216567;28;5762;-61
2022/04/02 08:43:56;;;;;;;;;;;;;;;2.67;66.72;95877.13;4223088;28;5848;-59
2022/04/02 08:46:10;;;;;;;;;;;;;;;2.51;65.52;95885.00;4223430;27;5666;-61
2022/04/02 08:48:23;;;;;;;;;;;;;;;2.30;66.27;95885.50;4228332;28;5666;-62
2022/04/02 08:50:36;;;;;;;;;;;;;;;2.34;65.61;95879.78;4211818;28;5694;-62
2022/04/02 08:52:56;;;;;;;;;;;;;;;2.44;66.49;95890.03;4223296;28;5869;-62
2022/04/02 08:55:23;;;;;;;;;;;;;;;2.60;67.25;95892.66;4211430;28;5657;-61
2022/04/02 08:57:54;;;;;;;;;;;;;;;2.61;66.63;95893.47;4205346;28;5772;-62
2022/04/02 09:00:12;;;;;;;;;;;;;;;2.51;66.48;95905.88;4183375;28;5977;-60
2022/04/02 09:02:45;;;;;;;;;;;;;;;2.31;65.57;95906.19;4172299;28;5848;-61
2022/04/02 09:04:49;;;;;;;;;;;;;;;2.33;67.08;95911.25;4179862;28;5736;-61
2022/04/02 09:07:12;;;;;;;;;;;;;;;2.30;67.21;95909.78;4177764;28;5708;-60
2022/04/02 09:09:43;;;;;;;;;;;;;;;2.24;66.68;95910.41;4166950;28;5221;-60
2022/04/02 09:12:18;;;;;;;;;;;;;;;2.29;66.34;95910.75;4172489;28;7813;-61
2022/04/02 09:14:55;;;;;;;;;;;;;;;2.08;67.26;95912.22;4162358;28;5687;-61
2022/04/02 09:17:21;;;;;;;;;;;;;;;2.16;67.79;95913.03;4157714;28;6375;-60
2022/04/02 09:19:40;;;;;;;;;;;;;;;2.21;66.48;95921.19;4185548;28;5797;-61
2022/04/02 09:21:44;;;;;;;;;;;;;;;2.41;67.87;95923.47;4171346;28;5670;-60
2022/04/02 09:23:57;;;;;;;;;;;;;;;2.65;67.18;95922.63;4177967;28;5116;-60
2022/04/02 09:26:33;;;;;;;;;;;;;;;2.65;65.74;95926.06;4170276;28;5720;-60
2022/04/02 09:28:53;;;;;;;;;;;;;;;2.69;66.83;95923.94;4151580;28;5783;-60
2022/04/02 09:31:28;;;;;;;;;;;;;;;2.39;65.66;95928.03;4181308;28;5679;-59
2022/04/02 09:33:51;;;;;;;;;;;;;;;2.30;65.26;95935.88;4175552;28;5829;-61
2022/04/02 09:36:11;;;;;;;;;;;;;;;2.56;65.26;95929.66;4182357;28;5677;-60
2022/04/02 09:38:16;;;;;;;;;;;;;;;2.46;64.63;95932.44;4214461;28;5811;-60
2022/04/02 09:40:20;;;;;;;;;;;;;;;2.49;65.66;95924.28;4218009;28;5750;-60
2022/04/02 09:42:37;;;;;;;;;;;;;;;2.53;65.31;95927.38;4208257;28;6331;-61
2022/04/02 09:44:58;;;;;;;;;;;;;;;2.78;66.21;95928.16;4201009;28;5735;-60
2022/04/02 09:47:04;;;;;;;;;;;;;;;2.94;65.58;95922.91;4207187;28;5675;-61
2022/04/02 09:49:33;;;;;;;;;;;;;;;3.03;65.11;95936.75;4217944;28;6490;-61
2022/04/02 09:51:42;;;;;;;;;;;;;;;2.84;64.23;95930.13;4216346;28;5840;-61
2022/04/02 09:54:00;;;;;;;;;;;;;;;3.05;64.99;95940.00;4217918;28;5663;-61
2022/04/02 09:56:11;;;;;;;;;;;;;;;2.98;63.95;95931.22;4207170;28;5631;-61
2022/04/02 09:58:15;;;;;;;;;;;;;;;3.07;64.31;95938.88;4218270;27;5666;-61
2022/04/02 10:00:17;;;;;;;;;;;;;;;3.09;64.12;95946.53;4217881;28;6356;-61
2022/04/02 10:02:42;;;;;;;;;;;;;;;3.25;64.72;95936.03;4214154;28;5620;-61
2022/04/02 10:05:03;;;;;;;;;;;;;;;3.04;64.49;95939.19;4207535;28;5671;-61
2022/04/02 10:07:14;;;;;;;;;;;;;;;3.29;64.11;95939.16;4191956;28;5650;-61
2022/04/02 10:09:20;;;;;;;;;;;;;;;3.14;62.85;95952.06;4201272;28;5777;-62
2022/04/02 10:11:28;;;;;;;;;;;;;;;3.04;62.96;95948.81;4226987;28;5693;-63
2022/04/02 10:13:33;;;;;;;;;;;;;;;3.22;62.59;95955.47;4217717;28;5686;-61
2022/04/02 10:15:41;;;;;;;;;;;;;;;3.33;62.36;95941.25;4211702;28;5081;-61
2022/04/02 10:17:50;;;;;;;;;;;;;;;3.46;62.54;95949.34;4203020;28;5766;-61
2022/04/02 10:19:54;;;;;;;;;;;;;;;3.28;61.46;95950.53;4204972;28;5691;-61
2022/04/02 10:22:02;;;;;;;;;;;;;;;2.99;62.28;95961.56;4200884;28;5851;-61
2022/04/02 10:24:23;;;;;;;;;;;;;;;3.06;61.53;95962.53;4199386;28;6401;-61
2022/04/02 10:26:31;;;;;;;;;;;;;;;3.33;62.24;95969.97;4200757;28;6190;-61
2022/04/02 10:28:51;;;;;;;;;;;;;;;3.34;62.16;95966.38;4199414;28;5666;-61
2022/04/02 10:30:56;;;;;;;;;;;;;;;3.45;61.23;95970.44;4208131;28;5702;-60
2022/04/02 10:35:27;;;;;;;;;;;;;;;3.23;60.57;95971.97;4202893;28;5693;-62
2022/04/02 10:37:39;;;;;;;;;;;;;;;3.21;60.93;95972.13;4212752;28;5706;-62
2022/04/02 10:40:03;;;;;;;;;;;;;;;3.18;61.46;95974.28;4215634;28;5623;-60
2022/04/02 10:42:14;;;;;;;;;;;;;;;3.53;61.66;95975.63;4208838;28;5679;-61
2022/04/02 10:44:26;;;;;;;;;;;;;;;3.56;61.57;95982.31;4217030;28;5854;-60
2022/04/02 10:46:31;;;;;;;;;;;;;;;3.31;60.43;95973.75;4216607;28;5672;-59
2022/04/02 10:48:47;;;;;;;;;;;;;;;3.54;61.94;95982.47;4215678;28;6269;-60
2022/04/02 10:50:50;;;;;;;;;;;;;;;3.78;61.23;95973.72;4217020;28;5971;-59
2022/04/02 10:52:51;;;;;;;;;;;;;;;3.50;60.60;95981.16;4205478;28;6248;-59
2022/04/02 10:54:53;;;;;;;;;;;;;;;3.45;60.59;95983.50;4199863;28;5704;-58
2022/04/02 10:56:56;;;;;;;;;;;;;;;3.49;60.42;95990.81;4204673;28;5827;-60
2022/04/02 10:58:58;;;;;;;;;;;;;;;3.43;61.02;95990.69;4199839;28;5688;-61
2022/04/02 11:01:03;;;;;;;;;;;;;;;3.66;61.27;95988.16;4198620;28;5638;-59
2022/04/02 11:03:06;;;;;;;;;;;;;;;3.64;60.66;95992.75;4200287;28;5858;-60
2022/04/02 11:05:13;;;;;;;;;;;;;;;3.63;61.25;95988.50;4200049;28;5704;-61
2022/04/02 11:07:46;;;;;;;;;;;;;;;3.73;61.59;95989.09;4212581;28;5615;-62
2022/04/02 11:09:52;;;;;;;;;;;;;;;3.78;61.67;95997.25;4216503;28;5674;-61
2022/04/02 11:11:58;;;;;;;;;;;;;;;3.87;59.88;95998.03;4205899;28;5707;-61
2022/04/02 11:14:02;;;;;;;;;;;;;;;3.68;59.78;95991.41;4200995;28;5704;-60
2022/04/02 11:16:13;;;;;;;;;;;;;;;3.42;60.93;96000.31;4203002;28;6502;-60
2022/04/02 11:18:18;;;;;;;;;;;;;;;3.61;60.22;95991.25;4213469;28;5611;-59
2022/04/02 11:20:24;;;;;;;;;;;;;;;3.55;59.88;95998.97;4215796;28;5456;-60
2022/04/02 11:22:39;;;;;;;;;;;;;;;3.87;59.12;96004.06;4214438;28;8160;-60
2022/04/02 11:24:57;;;;;;;;;;;;;;;3.79;58.71;95991.03;4206155;28;5764;-58
2022/04/02 11:27:01;;;;;;;;;;;;;;;3.69;58.53;96006.91;4213843;28;6328;-61
2022/04/02 11:29:03;;;;;;;;;;;;;;;3.60;59.36;96007.94;4210314;28;5679;-60
2022/04/02 11:31:05;;;;;;;;;;;;;;;3.76;59.24;96001.84;4213677;28;6356;-60
2022/04/02 11:33:18;;;;;;;;;;;;;;;3.59;58.32;95995.84;4214980;28;5678;-61
2022/04/02 11:35:24;;;;;;;;;;;;;;;3.96;57.22;96004.84;4212513;28;5697;-60
2022/04/02 11:37:31;;;;;;;;;;;;;;;4.09;57.34;96015.56;4202363;28;5854;-61
2022/04/02 11:39:50;;;;;;;;;;;;;;;4.31;57.96;96014.78;4215587;28;5846;-60
2022/04/02 11:41:57;;;;;;;;;;;;;;;4.36;56.96;96009.84;4233004;28;5670;-60
2022/04/02 11:44:07;;;;;;;;;;;;;;;4.26;57.32;96013.66;4217741;28;5717;-60
2022/04/02 11:46:12;;;;;;;;;;;;;;;4.42;56.12;96013.59;4199216;28;5711;-58
2022/04/02 11:48:16;;;;;;;;;;;;;;;4.39;57.24;96013.91;4208174;28;5671;-60
2022/04/02 11:50:26;;;;;;;;;;;;;;;3.79;58.51;96017.19;4211391;28;5101;-60
2022/04/02 11:52:28;;;;;;;;;;;;;;;3.68;60.25;96031.44;4215033;28;5679;-61
2022/04/02 11:54:30;;;;;;;;;;;;;;;3.96;58.80;96034.41;4208201;28;5675;-61
2022/04/02 11:56:40;;;;;;;;;;;;;;;3.66;58.22;96032.59;4210512;28;5113;-61
2022/04/02 11:58:42;;;;;;;;;;;;;;;3.90;58.66;96035.09;4202548;28;7713;-60
2022/04/02 12:00:44;;;;;;;;;;;;;;;3.99;57.66;96034.09;4203202;28;5647;-63
2022/04/02 12:02:47;;;;;;;;;;;;;;;4.16;58.14;96028.78;4199417;28;6532;-62
2022/04/02 12:04:59;;;;;;;;;;;;;;;4.21;57.41;96026.47;4199645;28;5704;-62
2022/04/02 12:07:06;;;;;;;;;;;;;;;4.02;58.79;96032.94;4199372;28;5675;-61
2022/04/02 12:09:22;;;;;;;;;;;;;;;4.27;58.16;96037.03;4199699;28;6365;-61
2022/04/02 12:11:24;;;;;;;;;;;;;;;4.33;58.10;96046.84;4199614;28;5696;-61
2022/04/02 12:13:27;;;;;;;;;;;;;;;4.45;56.94;96043.81;4199378;28;5855;-61
2022/04/02 12:15:29;;;;;;;;;;;;;;;4.55;57.99;96040.00;4191330;28;6426;-61
2022/04/02 12:17:35;;;;;;;;;;;;;;;4.56;56.89;96041.63;4215751;28;5667;-61
2022/04/02 12:19:41;;;;;;;;;;;;;;;4.17;57.73;96044.28;4216358;28;5765;-60
2022/04/02 12:21:43;;;;;;;;;;;;;;;3.69;59.33;96047.94;4202414;28;5087;-61
2022/04/02 12:24:00;;;;;;;;;;;;;;;3.82;59.65;96058.66;4204395;28;5089;-61
2022/04/02 12:26:02;;;;;;;;;;;;;;;3.72;59.47;96052.81;4220019;28;7721;-63
2022/04/02 12:28:20;;;;;;;;;;;;;;;4.05;59.56;96048.28;4202319;28;5729;-63
2022/04/02 12:30:23;;;;;;;;;;;;;;;3.95;60.11;96061.56;4204342;28;5763;-60
2022/04/02 12:32:33;;;;;;;;;;;;;;;3.99;59.66;96057.63;4204223;28;5773;-61
2022/04/02 12:34:43;;;;;;;;;;;;;;;3.42;59.32;96064.84;4208760;28;5777;-66
2022/04/02 12:36:44;;;;;;;;;;;;;;;3.59;60.10;96063.81;4205420;28;5781;-63
2022/04/02 12:38:48;;;;;;;;;;;;;;;3.73;59.29;96064.91;4220543;28;5719;-64
2022/04/02 12:40:50;;;;;;;;;;;;;;;3.86;59.73;96065.22;4220503;27;5804;-63
2022/04/02 12:42:55;;;;;;;;;;;;;;;3.85;59.43;96058.34;4205677;28;5769;-63
2022/04/02 12:45:08;;;;;;;;;;;;;;;4.02;59.81;96059.09;4212673;28;5738;-63
2022/04/02 12:47:10;;;;;;;;;;;;;;;4.03;60.03;96066.75;4214766;28;5790;-63
2022/04/02 12:49:28;;;;;;;;;;;;;;;3.94;60.70;96067.75;4197674;28;5760;-63
2022/04/02 12:51:29;;;;;;;;;;;;;;;4.15;59.01;96066.38;4197841;28;5958;-63
2022/04/02 12:53:33;;;;;;;;;;;;;;;3.98;59.06;96068.25;4206378;28;5667;-63
2022/04/02 12:55:34;;;;;;;;;;;;;;;3.83;59.79;96075.16;4199082;28;5803;-63
2022/04/02 12:57:39;;;;;;;;;;;;;;;3.64;61.14;96077.19;4198056;28;5103;-64
2022/04/02 12:59:52;;;;;;;;;;;;;;;3.57;62.19;96078.03;4200712;28;7753;-64
2022/04/02 13:01:56;;;;;;;;;;;;;;;3.83;62.84;96077.78;4214729;28;5775;-63
2022/04/02 13:04:02;;;;;;;;;;;;;;;3.97;62.61;96091.00;4215479;28;5825;-63
2022/04/02 13:06:05;;;;;;;;;;;;;;;4.00;62.79;96090.66;4213636;28;5722;-63
2022/04/02 13:08:08;;;;;;;;;;;;;;;3.53;64.97;96100.25;4211722;28;5825;-64
2022/04/02 13:10:13;;;;;;;;;;;;;;;3.69;64.44;96108.06;4208597;28;5846;-67
2022/04/02 13:12:23;;;;;;;;;;;;;;;3.85;64.20;96104.56;4214694;28;5789;-64
2022/04/02 13:14:35;;;;;;;;;;;;;;;3.72;64.01;96095.44;4210216;28;5896;-64
2022/04/02 13:16:39;;;;;;;;;;;;;;;3.55;64.49;96098.28;4201998;28;5699;-65
2022/04/02 13:21:18;;;;;;;;;;;;;;;3.59;65.53;96100.38;4210197;28;5935;-64
2022/04/02 13:24:12;;;;;;;;;;;;;;;3.96;63.62;96106.81;4209367;28;5794;-62
2022/04/02 13:26:29;;;;;;;;;;;;;;;3.98;62.56;96105.69;4220027;28;5704;-62
2022/04/02 13:28:53;;;;;;;;;;;;;;;3.73;63.26;96112.78;4202519;28;5791;-63
2022/04/02 13:30:58;;;;;;;;;;;;;;;3.66;61.23;96101.38;4201257;28;6500;-63
2022/04/02 13:33:22;;;;;;;;;;;;;;;3.70;62.33;96122.75;4207495;28;5769;-64
2022/04/02 13:35:43;;;;;;;;;;;;;;;3.91;61.83;96109.94;4202842;28;5860;-64
2022/04/02 13:37:51;;;;;;;;;;;;;;;4.07;62.23;96114.31;4212535;28;5765;-64
2022/04/02 13:39:54;;;;;;;;;;;;;;;3.90;62.63;96117.97;4214315;28;6467;-63
2022/04/02 13:41:58;;;;;;;;;;;;;;;3.95;62.67;96121.69;4200206;28;5749;-63
2022/04/02 13:44:03;;;;;;;;;;;;;;;3.97;63.02;96122.38;4198864;28;5901;-64
2022/04/02 13:46:07;;;;;;;;;;;;;;;3.53;63.57;96129.81;4214845;28;5830;-63
2022/04/02 13:48:10;;;;;;;;;;;;;;;3.40;64.62;96132.94;4203410;28;5890;-64
2022/04/02 13:50:16;;;;;;;;;;;;;;;3.77;63.90;96129.78;4203943;28;5778;-63
2022/04/02 13:52:22;;;;;;;;;;;;;;;3.28;65.22;96128.19;4212046;28;5762;-64
2022/04/02 13:54:46;;;;;;;;;;;;;;;3.58;62.62;96145.00;4198427;28;5801;-64
2022/04/02 13:56:57;;;;;;;;;;;;;;;3.67;62.50;96139.59;4218394;28;5748;-64
2022/04/02 13:59:04;;;;;;;;;;;;;;;3.77;62.33;96145.47;4208333;28;5745;-64
2022/04/02 14:01:11;;;;;;;;;;;;;;;3.70;61.87;96146.28;4210585;28;5761;-64
2022/04/02 14:03:17;;;;;;;;;;;;;;;3.63;61.93;96153.16;4203165;28;5803;-64
2022/04/02 14:05:25;;;;;;;;;;;;;;;3.75;62.13;96157.06;4200695;28;5900;-64
2022/04/02 14:07:30;;;;;;;;;;;;;;;3.69;61.88;96158.53;4199295;28;5833;-64
2022/04/02 14:09:33;;;;;;;;;;;;;;;3.62;62.26;96154.13;4198086;28;5914;-64
2022/04/02 14:11:40;;;;;;;;;;;;;;;3.81;62.13;96145.94;4204296;28;5762;-64
2022/04/02 14:14:04;;;;;;;;;;;;;;;3.97;62.29;96151.13;4203721;28;5839;-62
2022/04/02 14:16:12;;;;;;;;;;;;;;;3.96;61.53;96159.94;4199368;28;5752;-63
2022/04/02 14:18:20;;;;;;;;;;;;;;;3.86;61.43;96159.34;4198927;28;5818;-64
2022/04/02 14:20:22;;;;;;;;;;;;;;;3.47;61.71;96157.41;4198012;28;6015;-63
2022/04/02 14:22:24;;;;;;;;;;;;;;;3.68;61.89;96159.53;4200925;28;5765;-63
2022/04/02 14:24:31;;;;;;;;;;;;;;;3.88;60.31;96157.38;4214486;28;5754;-63
2022/04/02 14:26:46;;;;;;;;;;;;;;;3.44;61.24;96156.94;4202012;28;5802;-63
2022/04/02 14:29:01;;;;;;;;;;;;;;;3.54;60.48;96160.19;4212949;28;5776;-62
2022/04/02 14:31:27;;;;;;;;;;;;;;;3.70;60.34;96154.94;4201983;28;5783;-62
2022/04/02 14:34:13;;;;;;;;;;;;;;;3.48;61.50;96171.28;4203535;28;5769;-62
2022/04/02 14:36:54;;;;;;;;;;;;;;;3.73;60.27;96166.84;4203822;28;5879;-62
2022/04/02 14:39:14;;;;;;;;;;;;;;;3.76;59.73;96169.16;4201842;28;5799;-62
2022/04/02 14:41:19;;;;;;;;;;;;;;;3.77;59.44;96176.03;4204491;28;5761;-62
2022/04/02 14:43:32;;;;;;;;;;;;;;;3.67;60.46;96178.00;4213869;28;5794;-62
2022/04/02 14:45:53;;;;;;;;;;;;;;;3.68;60.26;96177.00;4212782;28;5816;-62
2022/04/02 14:48:06;;;;;;;;;;;;;;;3.70;60.45;96188.91;4213052;28;5694;-62
2022/04/02 14:50:32;;;;;;;;;;;;;;;3.79;60.40;96187.13;4214406;28;5770;-62
2022/04/02 14:52:59;;;;;;;;;;;;;;;3.72;60.55;96186.94;4211993;28;5789;-62
2022/04/02 14:55:38;;;;;;;;;;;;;;;3.32;62.29;96185.19;4196449;28;5823;-61
2022/04/02 14:57:42;;;;;;;;;;;;;;;3.49;63.73;96194.66;4213333;28;5779;-62
2022/04/02 14:59:59;;;;;;;;;;;;;;;3.76;63.68;96200.53;4205504;28;5766;-62
2022/04/02 15:02:07;;;;;;;;;;;;;;;3.83;63.41;96201.47;4222865;28;5770;-61
2022/04/02 15:04:33;;;;;;;;;;;;;;;3.79;64.41;96198.41;4203427;28;5777;-61
2022/04/02 15:06:49;;;;;;;;;;;;;;;4.04;62.89;96196.53;4204760;28;6413;-61
2022/04/02 15:09:13;;;;;;;;;;;;;;;4.14;62.29;96198.16;4197741;28;6055;-61
2022/04/02 15:11:22;;;;;;;;;;;;;;;4.19;62.58;96201.94;4197437;28;5814;-60
2022/04/02 15:13:26;;;;;;;;;;;;;;;4.34;62.22;96205.47;4202388;28;5105;-61
2022/04/02 15:15:39;;;;;;;;;;;;;;;4.38;61.93;96204.13;4202079;28;5838;-60
2022/04/02 15:17:42;;;;;;;;;;;;;;;4.48;62.30;96211.78;4198852;28;6374;-62
2022/04/02 15:19:47;;;;;;;;;;;;;;;4.47;62.45;96204.94;4202784;28;5787;-62
2022/04/02 15:22:04;;;;;;;;;;;;;;;4.29;61.03;96207.75;4206973;28;5996;-62
2022/04/02 15:24:14;;;;;;;;;;;;;;;3.81;62.64;96219.13;4216845;28;5745;-61
2022/04/02 15:26:22;;;;;;;;;;;;;;;3.74;61.56;96207.72;4211794;28;5802;-61
2022/04/02 15:28:29;;;;;;;;;;;;;;;4.13;61.49;96217.47;4215520;28;6581;-63
2022/04/02 15:30:33;;;;;;;;;;;;;;;3.98;60.60;96215.53;4219019;28;5938;-61
2022/04/02 15:32:41;;;;;;;;;;;;;;;4.22;61.08;96216.47;4211584;28;6193;-65
2022/04/02 15:34:51;;;;;;;;;;;;;;;4.42;60.97;96227.34;4215371;28;5811;-60
2022/04/02 15:37:01;;;;;;;;;;;;;;;4.13;61.29;96238.38;4213447;28;5842;-63
2022/04/02 15:39:03;;;;;;;;;;;;;;;3.78;62.30;96224.72;4229402;28;5732;-62
2022/04/02 15:41:06;;;;;;;;;;;;;;;3.94;61.67;96229.09;4226992;28;5654;-62
2022/04/02 15:43:08;;;;;;;;;;;;;;;3.91;61.77;96230.25;4220947;28;5748;-61
2022/04/02 15:45:10;;;;;;;;;;;;;;;3.90;62.02;96243.50;4218865;28;5737;-63
2022/04/02 15:47:41;;;;;;;;;;;;;;;4.00;61.80;96239.72;4202161;28;5730;-62
2022/04/02 15:49:44;;;;;;;;;;;;;;;4.02;61.76;96242.97;4221180;28;5768;-63
2022/04/02 15:51:52;;;;;;;;;;;;;;;4.01;62.21;96243.97;4228536;28;5733;-64
2022/04/02 15:54:40;;;;;;;;;;;;;;;3.93;62.55;96248.38;4220397;28;5760;-63
2022/04/02 15:57:07;;;;;;;;;;;;;;;3.89;61.75;96241.88;4217342;28;5821;-65
2022/04/02 15:59:10;;;;;;;;;;;;;;;3.98;61.79;96246.91;4209165;28;5770;-64
2022/04/02 16:01:11;;;;;;;;;;;;;;;3.61;62.84;96259.66;4222195;28;5778;-64
2022/04/02 16:03:31;;;;;;;;;;;;;;;3.90;62.59;96254.78;4226641;28;5790;-63
2022/04/02 16:05:33;;;;;;;;;;;;;;;3.90;62.78;96257.38;4219636;28;5763;-64
2022/04/02 16:07:35;;;;;;;;;;;;;;;3.71;63.00;96260.31;4226990;28;5748;-64
2022/04/02 16:09:36;;;;;;;;;;;;;;;3.11;63.29;96263.19;4217721;28;5802;-64
2022/04/02 16:11:39;;;;;;;;;;;;;;;2.92;63.83;96270.31;4224460;28;5772;-64
2022/04/02 16:14:01;;;;;;;;;;;;;;;3.20;63.58;96264.84;4223999;28;5745;-63
2022/04/02 16:16:07;;;;;;;;;;;;;;;3.40;62.80;96273.22;4212534;28;5787;-64
2022/04/02 16:18:15;;;;;;;;;;;;;;;3.56;62.73;96278.47;4228040;28;5127;-64
2022/04/02 16:20:25;;;;;;;;;;;;;;;3.72;62.42;96282.88;4225364;28;5717;-64
2022/04/02 16:22:29;;;;;;;;;;;;;;;3.69;62.20;96278.78;4219825;28;5793;-63
2022/04/02 16:24:31;;;;;;;;;;;;;;;3.79;62.25;96289.91;4212981;28;5767;-63
2022/04/02 16:26:33;;;;;;;;;;;;;;;3.93;61.99;96290.22;4226411;28;5768;-64
2022/04/02 16:28:44;;;;;;;;;;;;;;;4.00;61.90;96293.84;4227162;28;5731;-63
2022/04/02 16:30:57;;;;;;;;;;;;;;;3.57;62.83;96292.34;4222831;28;5711;-63
2022/04/02 16:32:58;;;;;;;;;;;;;;;3.71;62.84;96294.31;4220270;28;5761;-61
2022/04/02 16:35:16;;;;;;;;;;;;;;;3.34;63.67;96300.78;4228016;28;5829;-62
2022/04/02 16:37:20;;;;;;;;;;;;;;;3.08;64.87;96297.47;4222722;28;6020;-63
2022/04/02 16:39:21;;;;;;;;;;;;;;;3.15;64.55;96295.84;4224340;28;6794;-62
2022/04/02 16:41:30;;;;;;;;;;;;;;;3.23;64.52;96303.72;4230241;28;6483;-63
2022/04/02 16:43:32;;;;;;;;;;;;;;;3.05;65.50;96305.59;4218915;28;5745;-64
2022/04/02 16:45:34;;;;;;;;;;;;;;;3.17;64.48;96304.31;4219202;28;5745;-64
2022/04/02 16:47:35;;;;;;;;;;;;;;;3.36;64.01;96298.03;4204743;28;5744;-62
2022/04/02 16:49:40;;;;;;;;;;;;;;;3.40;63.96;96294.13;4221145;28;5793;-62
2022/04/02 16:51:41;;;;;;;;;;;;;;;3.34;63.50;96306.03;4229880;28;5774;-62
2022/04/02 16:53:43;;;;;;;;;;;;;;;3.44;63.87;96311.94;4215545;28;5814;-62
2022/04/02 16:55:55;;;;;;;;;;;;;;;3.30;62.67;96309.94;4212172;28;5850;-63
2022/04/02 16:58:03;;;;;;;;;;;;;;;3.34;63.40;96313.84;4210802;28;5784;-63
2022/04/02 17:00:16;;;;;;;;;;;;;;;3.62;63.02;96324.84;4226604;28;5695;-63
2022/04/02 17:02:40;;;;;;;;;;;;;;;3.62;61.76;96321.41;4204266;28;5834;-63
2022/04/02 17:04:54;;;;;;;;;;;;;;;3.53;62.06;96328.44;4225892;28;5760;-64
2022/04/02 17:07:07;;;;;;;;;;;;;;;3.32;62.40;96333.28;4213794;28;5765;-63
2022/04/02 17:09:29;;;;;;;;;;;;;;;3.42;62.16;96334.78;4210288;28;5762;-64
2022/04/02 17:11:40;;;;;;;;;;;;;;;3.37;62.80;96342.28;4199025;28;5815;-63
2022/04/02 17:13:41;;;;;;;;;;;;;;;3.31;62.52;96348.16;4209314;28;5933;-62
2022/04/02 17:15:55;;;;;;;;;;;;;;;3.33;62.86;96348.81;4202470;28;5759;-63
2022/04/02 17:18:29;;;;;;;;;;;;;;;3.37;62.39;96346.69;4203157;28;6549;-62
2022/04/02 17:20:31;;;;;;;;;;;;;;;3.34;62.40;96352.22;4201865;28;5798;-61
2022/04/02 17:22:41;;;;;;;;;;;;;;;3.32;62.41;96354.19;4200057;28;5778;-61
2022/04/02 17:24:43;;;;;;;;;;;;;;;3.42;62.50;96360.09;4206941;28;5688;-64
2022/04/02 17:26:45;;;;;;;;;;;;;;;3.52;62.69;96359.97;4204826;28;5680;-61
2022/04/02 17:28:46;;;;;;;;;;;;;;;3.63;62.40;96368.31;4207809;28;5805;-63
2022/04/02 17:30:48;;;;;;;;;;;;;;;3.58;61.78;96367.97;4204511;28;5909;-65
2022/04/02 17:32:51;;;;;;;;;;;;;;;3.69;62.10;96372.91;4204740;28;6981;-70
2022/04/02 17:34:54;;;;;;;;;;;;;;;3.62;62.34;96373.69;4201180;28;5772;-69
2022/04/02 17:37:03;;;;;;;;;;;;;;;3.59;62.27;96381.84;4207738;28;5671;-68
2022/04/02 17:39:04;;;;;;;;;;;;;;;3.32;61.73;96381.13;4220279;28;5663;-67
2022/04/02 17:41:11;;;;;;;;;;;;;;;3.18;63.13;96381.75;4209091;28;5807;-67
2022/04/02 17:43:14;;;;;;;;;;;;;;;3.17;62.54;96391.38;4200808;28;5822;-66
2022/04/02 17:45:25;;;;;;;;;;;;;;;3.27;62.66;96387.78;4213961;28;5755;-64
2022/04/02 17:47:26;;;;;;;;;;;;;;;3.29;62.47;96386.69;4202104;28;5782;-65
2022/04/02 17:49:31;;;;;;;;;;;;;;;3.30;62.33;96395.34;4200603;28;5694;-65
2022/04/02 17:51:39;;;;;;;;;;;;;;;3.43;62.14;96396.53;4205419;28;5720;-69
2022/04/02 17:53:43;;;;;;;;;;;;;;;3.11;62.71;96393.78;4213639;28;5678;-69
2022/04/02 17:55:44;;;;;;;;;;;;;;;3.32;62.44;96398.59;4214055;28;5758;-66
2022/04/02 17:58:04;;;;;;;;;;;;;;;3.30;62.45;96396.16;4210338;28;5895;-65
2022/04/02 18:00:08;;;;;;;;;;;;;;;3.29;62.68;96404.97;4206329;28;5791;-66
2022/04/02 18:02:15;;;;;;;;;;;;;;;3.33;62.83;96408.09;4209701;28;5947;-66
2022/04/02 18:04:20;;;;;;;;;;;;;;;3.20;62.75;96403.28;4215976;28;5690;-66
2022/04/02 18:06:27;;;;;;;;;;;;;;;3.21;63.04;96410.97;4212012;28;5688;-66
2022/04/02 18:08:29;;;;;;;;;;;;;;;3.21;62.72;96410.97;4202394;28;5691;-68
2022/04/02 18:10:32;;;;;;;;;;;;;;;3.13;63.22;96416.16;4211990;28;5662;-67
2022/04/02 18:12:34;;;;;;;;;;;;;;;2.95;63.83;96417.22;4208873;28;5749;-67
2022/04/02 18:14:35;;;;;;;;;;;;;;;3.16;63.51;96415.81;4211823;28;6207;-64
2022/04/02 18:16:37;;;;;;;;;;;;;;;3.30;63.12;96430.13;4218855;27;5730;-63
2022/04/02 18:18:39;;;;;;;;;;;;;;;3.14;63.27;96419.56;4210448;28;5670;-60
2022/04/02 18:20:42;;;;;;;;;;;;;;;3.14;63.74;96422.19;4208394;28;5858;-61
2022/04/02 18:22:44;;;;;;;;;;;;;;;3.20;63.84;96424.19;4203019;28;5688;-61
2022/04/02 18:24:46;;;;;;;;;;;;;;;3.26;63.68;96426.16;4201562;28;5779;-61
2022/04/02 18:26:47;;;;;;;;;;;;;;;3.35;63.54;96440.09;4212461;28;5840;-62
2022/04/02 18:28:49;;;;;;;;;;;;;;;3.36;62.23;96434.69;4227179;28;5604;-61
2022/04/02 18:30:51;;;;;;;;;;;;;;;3.33;62.10;96440.25;4206128;28;5903;-62
2022/04/02 18:32:52;;;;;;;;;;;;;;;3.41;62.42;96442.91;4208593;28;5852;-61
2022/04/02 18:34:54;;;;;;;;;;;;;;;3.18;61.93;96447.03;4201994;28;5717;-62
2022/04/02 18:37:00;;;;;;;;;;;;;;;2.98;62.84;96450.84;4201703;28;5819;-62
2022/04/02 18:39:03;;;;;;;;;;;;;;;2.84;63.30;96454.84;4220425;28;8093;-63
2022/04/02 18:41:04;;;;;;;;;;;;;;;3.00;62.97;96464.56;4215153;28;5612;-62
2022/04/02 18:43:17;;;;;;;;;;;;;;;2.86;62.88;96466.75;4210173;28;5723;-61
2022/04/02 18:45:18;;;;;;;;;;;;;;;2.91;62.79;96464.50;4203728;28;6053;-61
2022/04/02 18:47:20;;;;;;;;;;;;;;;2.97;62.62;96472.72;4210088;28;5684;-61
2022/04/02 18:49:22;;;;;;;;;;;;;;;3.11;62.28;96472.13;4215251;28;5687;-61
2022/04/02 18:51:26;;;;;;;;;;;;;;;2.95;62.52;96488.53;4210548;28;5653;-61
2022/04/02 18:53:27;;;;;;;;;;;;;;;3.10;62.66;96478.34;4208247;28;5642;-62
2022/04/02 18:55:29;;;;;;;;;;;;;;;3.28;62.43;96481.69;4210426;28;5133;-61
2022/04/02 18:57:31;;;;;;;;;;;;;;;3.25;62.04;96484.63;4203296;28;5824;-60
2022/04/02 18:59:32;;;;;;;;;;;;;;;3.00;62.44;96488.06;4211241;28;6371;-61
2022/04/02 19:01:36;;;;;;;;;;;;;;;3.07;62.42;96491.72;4209464;28;5820;-61
2022/04/02 19:03:38;;;;;;;;;;;;;;;3.17;62.52;96490.63;4200464;28;5720;-63
2022/04/02 19:05:39;;;;;;;;;;;;;;;2.93;62.33;96501.72;4199607;28;5709;-61
2022/04/02 19:07:42;;;;;;;;;;;;;;;3.13;62.74;96504.13;4202304;28;5779;-61
2022/04/02 19:09:44;;;;;;;;;;;;;;;3.12;62.38;96503.31;4204075;28;5675;-65
2022/04/02 19:11:47;;;;;;;;;;;;;;;3.08;62.25;96504.63;4209230;28;5766;-62
2022/04/02 19:13:49;;;;;;;;;;;;;;;3.07;62.35;96510.81;4205252;28;5952;-62
2022/04/02 19:15:51;;;;;;;;;;;;;;;3.01;62.59;96515.81;4198535;28;5688;-62
2022/04/02 19:17:53;;;;;;;;;;;;;;;3.21;62.26;96514.66;4209199;28;5685;-61
2022/04/02 19:19:54;;;;;;;;;;;;;;;3.16;62.48;96522.09;4201236;28;5685;-61
2022/04/02 19:21:56;;;;;;;;;;;;;;;3.30;62.23;96523.38;4208984;28;5208;-61
2022/04/02 19:23:58;;;;;;;;;;;;;;;3.36;62.21;96523.53;4204097;28;7712;-61
2022/04/02 19:26:03;;;;;;;;;;;;;;;3.43;61.78;96528.97;4203622;28;5678;-62
2022/04/02 19:28:07;;;;;;;;;;;;;;;3.44;61.99;96526.22;4200435;28;5635;-62
2022/04/02 19:30:10;;;;;;;;;;;;;;;3.43;61.87;96527.19;4211985;28;5730;-61
2022/04/02 19:32:11;;;;;;;;;;;;;;;3.40;62.17;96534.53;4200843;28;5692;-61